createdAt,value
2019-02-25T00:00:23.671Z,43.95
2019-02-25T00:01:23.760Z,44.19
2019-02-25T00:02:23.847Z,44.19
2019-02-25T00:03:23.944Z,44.43
2019-02-25T00:04:24.017Z,44.19
2019-02-25T00:05:24.107Z,77.39
2019-02-25T00:06:24.192Z,54.44
2019-02-25T00:07:24.283Z,44.43
2019-02-25T00:08:24.366Z,74.95
2019-02-25T00:09:24.455Z,44.92
2019-02-25T00:10:24.543Z,82.76
2019-02-25T00:11:24.624Z,86.43
2019-02-25T00:12:24.708Z,75.68
2019-02-25T00:13:24.796Z,44.68
2019-02-25T00:14:24.889Z,44.19
2019-02-25T00:15:24.974Z,43.95
2019-02-25T00:16:25.059Z,76.66
2019-02-25T00:17:25.142Z,76.66
2019-02-25T00:18:25.224Z,48.58
2019-02-25T00:19:25.311Z,43.95
2019-02-25T00:20:25.398Z,43.70
2019-02-25T00:21:25.484Z,43.95
2019-02-25T00:22:25.569Z,44.19
2019-02-25T00:23:25.667Z,44.19
2019-02-25T00:24:25.727Z,43.70
2019-02-25T00:25:25.812Z,43.95
2019-02-25T00:26:25.912Z,43.95
2019-02-25T00:27:25.995Z,43.95
2019-02-25T00:28:26.079Z,43.95
2019-02-25T00:29:26.169Z,43.95
2019-02-25T00:30:26.249Z,43.95
2019-02-25T00:31:26.336Z,43.95
2019-02-25T00:32:26.420Z,43.95
2019-02-25T00:33:26.508Z,44.19
2019-02-25T00:34:26.590Z,44.68
2019-02-25T00:35:26.671Z,44.92
2019-02-25T00:36:26.752Z,45.17
2019-02-25T00:37:26.847Z,82.76
2019-02-25T00:38:26.925Z,74.71
2019-02-25T00:39:27.012Z,76.90
2019-02-25T00:40:27.771Z,45.41
2019-02-25T00:41:27.192Z,82.52
2019-02-25T00:42:27.270Z,56.64
2019-02-25T00:43:27.359Z,44.19
2019-02-25T00:44:27.447Z,44.68
2019-02-25T00:45:27.532Z,44.43
2019-02-25T00:46:27.628Z,44.19
2019-02-25T00:47:27.691Z,46.63
2019-02-25T00:48:27.768Z,46.88
2019-02-25T00:49:27.861Z,45.65
2019-02-25T00:50:27.948Z,45.17
2019-02-25T00:51:28.031Z,44.43
2019-02-25T00:52:28.117Z,44.19
2019-02-25T00:53:28.192Z,45.17
2019-02-25T00:54:28.274Z,44.68
2019-02-25T00:55:28.362Z,44.92
2019-02-25T00:56:28.451Z,80.08
2019-02-25T00:57:28.533Z,59.08
2019-02-25T00:58:28.630Z,44.68
2019-02-25T00:59:28.703Z,45.17
2019-02-25T01:00:28.797Z,49.32
2019-02-25T01:01:28.885Z,44.68
2019-02-25T01:02:28.970Z,45.65
2019-02-25T01:03:29.049Z,44.68
2019-02-25T01:04:29.137Z,47.12
2019-02-25T01:05:29.225Z,50.54
2019-02-25T01:06:29.300Z,46.63
2019-02-25T01:07:29.389Z,71.29
2019-02-25T01:08:29.477Z,53.96
2019-02-25T01:09:29.560Z,76.66
2019-02-25T01:10:29.638Z,48.83
2019-02-25T01:11:29.731Z,47.61
2019-02-25T01:12:29.822Z,81.30
2019-02-25T01:13:29.915Z,76.17
2019-02-25T01:14:29.999Z,74.46
2019-02-25T01:15:30.086Z,62.50
2019-02-25T01:16:30.175Z,56.15
2019-02-25T01:17:30.259Z,81.30
2019-02-25T01:18:30.344Z,44.92
2019-02-25T01:19:30.425Z,71.78
2019-02-25T01:20:30.528Z,73.73
2019-02-25T01:21:30.592Z,45.90
2019-02-25T01:22:30.728Z,45.17
2019-02-25T01:23:30.771Z,45.17
2019-02-25T01:24:30.851Z,50.29
2019-02-25T01:25:30.933Z,46.14
2019-02-25T01:26:31.027Z,87.40
2019-02-25T01:27:31.129Z,58.59
2019-02-25T01:28:31.207Z,59.57
2019-02-25T01:29:31.308Z,45.41
2019-02-25T01:30:31.372Z,45.41
2019-02-25T01:31:31.456Z,44.92
2019-02-25T01:32:31.548Z,84.47
2019-02-25T01:33:31.628Z,60.30
2019-02-25T01:34:31.714Z,44.19
2019-02-25T01:35:31.808Z,44.68
2019-02-25T01:36:31.892Z,45.17
2019-02-25T01:37:31.971Z,45.17
2019-02-25T01:38:32.064Z,45.65
2019-02-25T01:39:32.150Z,45.90
2019-02-25T01:40:32.238Z,78.86
2019-02-25T01:41:32.315Z,82.52
2019-02-25T01:42:32.418Z,47.12
2019-02-25T01:43:32.487Z,45.65
2019-02-25T01:44:32.582Z,48.34
2019-02-25T01:45:32.668Z,73.97
2019-02-25T01:46:32.748Z,73.24
2019-02-25T01:47:32.837Z,46.88
2019-02-25T01:48:32.919Z,47.61
2019-02-25T01:49:33.018Z,81.54
2019-02-25T01:50:33.098Z,46.63
2019-02-25T01:51:33.193Z,75.93
2019-02-25T01:52:33.276Z,47.12
2019-02-25T01:53:33.378Z,46.88
2019-02-25T01:54:33.469Z,84.47
2019-02-25T01:55:33.543Z,45.90
2019-02-25T01:56:33.639Z,45.65
2019-02-25T01:57:33.745Z,45.90
2019-02-25T01:58:33.812Z,47.12
2019-02-25T01:59:33.900Z,47.36
2019-02-25T02:00:33.976Z,46.88
2019-02-25T02:01:34.089Z,47.36
2019-02-25T02:02:34.155Z,75.93
2019-02-25T02:03:34.247Z,49.32
2019-02-25T02:04:34.332Z,74.71
2019-02-25T02:05:34.424Z,47.61
2019-02-25T02:06:34.531Z,49.56
2019-02-25T02:07:34.589Z,48.34
2019-02-25T02:08:34.690Z,79.59
2019-02-25T02:09:34.772Z,69.34
2019-02-25T02:10:34.857Z,77.64
2019-02-25T02:11:34.946Z,47.61
2019-02-25T02:12:35.034Z,47.12
2019-02-25T02:13:35.108Z,74.46
2019-02-25T02:14:35.197Z,65.67
2019-02-25T02:15:35.275Z,81.05
2019-02-25T02:16:35.361Z,68.12
2019-02-25T02:17:35.449Z,46.63
2019-02-25T02:18:35.524Z,45.90
2019-02-25T02:19:35.620Z,46.39
2019-02-25T02:20:35.701Z,49.32
2019-02-25T02:21:35.789Z,49.56
2019-02-25T02:22:35.881Z,78.37
2019-02-25T02:23:35.956Z,49.80
2019-02-25T02:24:36.060Z,74.71
2019-02-25T02:25:36.130Z,76.90
2019-02-25T02:26:36.218Z,88.62
2019-02-25T02:27:36.303Z,72.02
2019-02-25T02:28:36.390Z,74.22
2019-02-25T02:29:36.478Z,48.34
2019-02-25T02:30:36.557Z,47.36
2019-02-25T02:31:36.639Z,46.88
2019-02-25T02:32:36.736Z,50.54
2019-02-25T02:33:36.806Z,48.34
2019-02-25T02:34:36.893Z,46.88
2019-02-25T02:35:36.970Z,47.12
2019-02-25T02:36:37.069Z,48.83
2019-02-25T02:37:37.143Z,49.80
2019-02-25T02:38:37.304Z,50.05
2019-02-25T02:39:37.319Z,80.81
2019-02-25T02:40:37.409Z,83.98
2019-02-25T02:41:37.496Z,77.64
2019-02-25T02:42:37.580Z,50.54
2019-02-25T02:43:37.662Z,73.24
2019-02-25T02:44:37.746Z,51.03
2019-02-25T02:45:37.834Z,48.10
2019-02-25T02:46:37.920Z,76.42
2019-02-25T02:47:38.009Z,48.10
2019-02-25T02:48:38.085Z,48.10
2019-02-25T02:49:38.172Z,75.20
2019-02-25T02:50:38.354Z,48.58
2019-02-25T02:51:38.340Z,47.36
2019-02-25T02:52:38.423Z,48.83
2019-02-25T02:53:38.510Z,46.88
2019-02-25T02:54:38.591Z,47.36
2019-02-25T02:55:38.673Z,83.74
2019-02-25T02:56:38.758Z,49.56
2019-02-25T02:57:38.851Z,47.36
2019-02-25T02:58:38.931Z,74.95
2019-02-25T02:59:39.020Z,51.51
2019-02-25T03:00:39.101Z,51.03
2019-02-25T03:01:39.180Z,48.34
2019-02-25T03:02:39.268Z,48.83
2019-02-25T03:03:39.363Z,79.59
2019-02-25T03:04:39.439Z,56.40
2019-02-25T03:05:39.533Z,85.69
2019-02-25T03:06:39.617Z,48.83
2019-02-25T03:07:39.699Z,49.32
2019-02-25T03:08:39.786Z,73.00
2019-02-25T03:09:39.871Z,76.66
2019-02-25T03:10:39.969Z,47.85
2019-02-25T03:11:40.043Z,82.76
2019-02-25T03:12:40.123Z,52.98
2019-02-25T03:13:40.209Z,47.36
2019-02-25T03:14:40.303Z,73.97
2019-02-25T03:15:40.376Z,76.17
2019-02-25T03:16:40.466Z,83.50
2019-02-25T03:17:40.547Z,91.55
2019-02-25T03:18:40.647Z,82.03
2019-02-25T03:19:40.712Z,49.32
2019-02-25T03:20:40.807Z,55.18
2019-02-25T03:21:40.897Z,74.71
2019-02-25T03:22:40.982Z,48.10
2019-02-25T03:23:41.075Z,87.40
2019-02-25T03:24:41.151Z,73.24
2019-02-25T03:25:41.234Z,55.42
2019-02-25T03:26:41.314Z,56.40
2019-02-25T03:27:41.398Z,80.57
2019-02-25T03:28:41.480Z,68.12
2019-02-25T03:29:41.569Z,73.73
2019-02-25T03:30:41.654Z,63.72
2019-02-25T03:31:41.737Z,62.99
2019-02-25T03:32:41.818Z,79.10
2019-02-25T03:33:41.903Z,77.88
2019-02-25T03:34:41.989Z,74.46
2019-02-25T03:35:42.085Z,87.40
2019-02-25T03:36:42.155Z,67.38
2019-02-25T03:37:42.241Z,78.61
2019-02-25T03:38:42.327Z,71.78
2019-02-25T03:39:42.412Z,77.39
2019-02-25T03:40:42.497Z,72.27
2019-02-25T03:41:42.593Z,82.52
2019-02-25T03:42:42.672Z,82.76
2019-02-25T03:43:42.761Z,75.93
2019-02-25T03:44:42.855Z,78.61
2019-02-25T03:45:42.930Z,75.20
2019-02-25T03:46:42.997Z,82.28
2019-02-25T03:47:43.095Z,76.17
2019-02-25T03:48:43.159Z,76.90
2019-02-25T03:49:43.245Z,85.94
2019-02-25T03:50:43.330Z,80.08
2019-02-25T03:51:43.413Z,79.83
2019-02-25T03:52:43.502Z,80.57
2019-02-25T03:53:43.598Z,64.45
2019-02-25T03:54:43.683Z,77.88
2019-02-25T03:55:43.766Z,72.75
2019-02-25T03:56:43.865Z,77.15
2019-02-25T03:57:43.938Z,76.90
2019-02-25T03:58:44.024Z,68.60
2019-02-25T03:59:44.109Z,85.45
2019-02-25T04:00:44.211Z,77.88
2019-02-25T04:01:44.276Z,79.35
2019-02-25T04:02:44.374Z,75.44
2019-02-25T04:03:44.458Z,74.71
2019-02-25T04:04:44.535Z,78.61
2019-02-25T04:05:44.612Z,79.59
2019-02-25T04:06:44.698Z,68.60
2019-02-25T04:07:44.787Z,77.88
2019-02-25T04:08:44.875Z,72.75
2019-02-25T04:09:44.976Z,78.61
2019-02-25T04:10:45.049Z,65.19
2019-02-25T04:11:45.128Z,84.47
2019-02-25T04:12:45.219Z,80.08
2019-02-25T04:13:45.299Z,82.52
2019-02-25T04:14:45.403Z,80.32
2019-02-25T04:15:45.469Z,84.96
2019-02-25T04:16:45.560Z,79.59
2019-02-25T04:17:45.641Z,86.18
2019-02-25T04:18:45.729Z,79.59
2019-02-25T04:19:45.814Z,76.90
2019-02-25T04:20:45.898Z,78.13
2019-02-25T04:21:45.980Z,77.64
2019-02-25T04:22:46.071Z,78.13
2019-02-25T04:23:46.151Z,80.32
2019-02-25T04:24:46.238Z,74.95
2019-02-25T04:25:46.324Z,84.96
2019-02-25T04:26:46.418Z,77.39
2019-02-25T04:27:46.498Z,80.81
2019-02-25T04:28:46.583Z,81.30
2019-02-25T04:29:46.671Z,75.44
2019-02-25T04:30:46.761Z,75.93
2019-02-25T04:31:46.838Z,77.15
2019-02-25T04:32:46.927Z,77.39
2019-02-25T04:33:47.014Z,76.66
2019-02-25T04:34:47.093Z,76.17
2019-02-25T04:35:47.177Z,76.17
2019-02-25T04:36:47.265Z,78.13
2019-02-25T04:37:47.349Z,67.87
2019-02-25T04:38:47.438Z,81.05
2019-02-25T04:39:47.521Z,76.66
2019-02-25T04:40:47.605Z,77.88
2019-02-25T04:41:47.693Z,76.17
2019-02-25T04:42:47.781Z,81.05
2019-02-25T04:43:47.864Z,75.20
2019-02-25T04:44:47.950Z,82.28
2019-02-25T04:45:48.036Z,85.21
2019-02-25T04:46:48.132Z,77.64
2019-02-25T04:47:48.207Z,73.24
2019-02-25T04:48:48.292Z,84.72
2019-02-25T04:49:48.375Z,77.64
2019-02-25T04:50:48.459Z,76.90
2019-02-25T04:51:48.541Z,80.81
2019-02-25T04:52:48.632Z,77.15
2019-02-25T04:53:48.719Z,78.61
2019-02-25T04:54:48.805Z,74.95
2019-02-25T04:55:48.895Z,75.93
2019-02-25T04:56:48.982Z,77.64
2019-02-25T04:57:49.076Z,76.66
2019-02-25T04:58:49.271Z,76.17
2019-02-25T04:59:49.231Z,77.15
2019-02-25T05:00:49.325Z,84.23
2019-02-25T05:01:49.407Z,85.94
2019-02-25T05:02:49.487Z,77.15
2019-02-25T05:03:49.572Z,81.05
2019-02-25T05:04:49.658Z,79.59
2019-02-25T05:05:49.747Z,77.88
2019-02-25T05:06:49.826Z,78.13
2019-02-25T05:07:49.914Z,76.66
2019-02-25T05:08:50.001Z,84.72
2019-02-25T05:09:50.093Z,78.13
2019-02-25T05:10:50.162Z,81.05
2019-02-25T05:11:50.279Z,81.79
2019-02-25T05:12:50.347Z,83.98
2019-02-25T05:13:50.435Z,77.15
2019-02-25T05:14:50.520Z,88.13
2019-02-25T05:15:50.599Z,77.64
2019-02-25T05:16:50.686Z,80.57
2019-02-25T05:17:50.774Z,81.30
2019-02-25T05:18:50.866Z,86.18
2019-02-25T05:19:50.943Z,79.35
2019-02-25T05:20:51.034Z,78.37
2019-02-25T05:21:51.114Z,79.83
2019-02-25T05:22:51.194Z,77.64
2019-02-25T05:23:51.286Z,75.20
2019-02-25T05:24:51.380Z,83.98
2019-02-25T05:25:51.462Z,81.54
2019-02-25T05:26:51.545Z,82.76
2019-02-25T05:27:51.627Z,86.18
2019-02-25T05:28:51.712Z,77.88
2019-02-25T05:29:51.795Z,88.62
2019-02-25T05:30:51.875Z,84.96
2019-02-25T05:31:51.982Z,77.39
2019-02-25T05:32:52.054Z,77.15
2019-02-25T05:33:52.131Z,86.67
2019-02-25T05:34:52.217Z,82.76
2019-02-25T05:35:52.305Z,77.39
2019-02-25T05:36:52.388Z,83.98
2019-02-25T05:37:52.479Z,84.47
2019-02-25T05:38:52.571Z,78.13
2019-02-25T05:39:52.656Z,78.37
2019-02-25T05:40:52.725Z,77.15
2019-02-25T05:41:52.815Z,84.72
2019-02-25T05:42:52.897Z,86.43
2019-02-25T05:43:52.983Z,79.83
2019-02-25T05:44:53.075Z,81.30
2019-02-25T05:45:53.156Z,79.10
2019-02-25T05:46:53.243Z,78.13
2019-02-25T05:47:53.330Z,79.10
2019-02-25T05:48:53.399Z,79.35
2019-02-25T05:49:53.490Z,78.13
2019-02-25T05:50:53.576Z,81.05
2019-02-25T05:51:53.655Z,82.28
2019-02-25T05:52:53.745Z,83.01
2019-02-25T05:53:53.830Z,78.13
2019-02-25T05:54:53.914Z,77.64
2019-02-25T05:55:53.991Z,78.37
2019-02-25T05:56:54.076Z,85.94
2019-02-25T05:57:54.176Z,81.79
2019-02-25T05:58:54.275Z,81.30
2019-02-25T05:59:54.386Z,83.98
2019-02-25T06:00:54.469Z,80.08
2019-02-25T06:01:54.517Z,84.47
2019-02-25T06:02:54.578Z,77.64
2019-02-25T06:03:54.651Z,80.57
2019-02-25T06:04:54.717Z,83.01
2019-02-25T06:05:54.796Z,76.90
2019-02-25T06:06:54.956Z,84.72
2019-02-25T06:07:54.993Z,76.90
2019-02-25T06:11:49.443Z,88.13
2019-02-25T06:12:49.526Z,77.88
2019-02-25T06:13:49.610Z,84.23
2019-02-25T06:14:49.696Z,78.13
2019-02-25T06:15:51.289Z,84.23
2019-02-25T06:16:49.863Z,75.93
2019-02-25T06:17:49.948Z,82.76
2019-02-25T06:18:50.038Z,84.72
2019-02-25T06:19:50.121Z,80.57
2019-02-25T06:20:50.210Z,84.96
2019-02-25T06:21:50.299Z,81.79
2019-02-25T06:22:50.386Z,80.32
2019-02-25T06:23:50.471Z,85.45
2019-02-25T06:24:50.560Z,86.18
2019-02-25T06:25:50.648Z,83.25
2019-02-25T06:26:50.735Z,85.45
2019-02-25T06:27:50.853Z,83.25
2019-02-25T06:28:50.931Z,82.28
2019-02-25T06:29:51.051Z,80.08
2019-02-25T06:30:51.095Z,85.69
2019-02-25T06:31:51.193Z,79.10
2019-02-25T06:32:51.276Z,78.86
2019-02-25T06:33:51.360Z,81.05
2019-02-25T06:34:51.447Z,79.59
2019-02-25T06:35:51.541Z,83.01
2019-02-25T06:36:51.623Z,82.52
2019-02-25T06:37:51.693Z,82.28
2019-02-25T06:38:51.782Z,79.59
2019-02-25T06:39:51.871Z,81.54
2019-02-25T06:40:51.955Z,83.98
2019-02-25T06:41:52.044Z,78.37
2019-02-25T06:42:52.131Z,83.74
2019-02-25T06:43:52.221Z,80.08
2019-02-25T06:44:52.299Z,82.03
2019-02-25T06:45:52.383Z,77.39
2019-02-25T06:46:52.501Z,87.16
2019-02-25T06:47:52.557Z,80.32
2019-02-25T06:48:52.640Z,79.59
2019-02-25T06:49:52.725Z,82.52
2019-02-25T06:50:52.815Z,84.47
2019-02-25T06:51:52.905Z,78.61
2019-02-25T06:52:52.984Z,78.86
2019-02-25T06:53:53.077Z,77.64
2019-02-25T06:54:53.158Z,77.39
2019-02-25T06:55:53.243Z,83.74
2019-02-25T06:56:53.334Z,81.54
2019-02-25T06:57:53.416Z,81.05
2019-02-25T06:58:53.504Z,82.52
2019-02-25T06:59:53.592Z,78.86
2019-02-25T07:00:53.674Z,78.61
2019-02-25T07:01:53.761Z,77.64
2019-02-25T07:02:53.849Z,85.21
2019-02-25T07:03:53.936Z,86.43
2019-02-25T07:04:54.020Z,76.90
2019-02-25T07:05:54.110Z,78.61
2019-02-25T07:06:54.194Z,79.10
2019-02-25T07:07:54.279Z,79.83
2019-02-25T07:08:54.365Z,78.13
2019-02-25T07:09:54.451Z,82.03
2019-02-25T07:10:54.536Z,79.10
2019-02-25T07:11:54.622Z,81.54
2019-02-25T07:12:54.710Z,83.01
2019-02-25T07:13:54.793Z,85.45
2019-02-25T07:14:54.880Z,79.35
2019-02-25T07:15:54.969Z,82.76
2019-02-25T07:16:57.131Z,79.59
2019-02-25T07:17:55.145Z,80.81
2019-02-25T07:18:55.228Z,85.94
2019-02-25T07:19:55.347Z,81.79
2019-02-25T07:20:55.394Z,83.25
2019-02-25T07:21:55.475Z,83.25
2019-02-25T07:22:55.557Z,78.37
2019-02-25T07:23:55.640Z,82.28
2019-02-25T07:24:55.728Z,79.10
2019-02-25T07:25:55.815Z,85.69
2019-02-25T07:26:55.900Z,86.43
2019-02-25T07:27:55.986Z,84.96
2019-02-25T07:28:56.069Z,86.67
2019-02-25T07:29:56.155Z,77.64
2019-02-25T07:30:56.239Z,80.32
2019-02-25T07:31:56.327Z,75.44
2019-02-25T07:32:56.414Z,76.90
2019-02-25T07:33:56.503Z,81.05
2019-02-25T07:34:56.588Z,80.08
2019-02-25T07:35:56.675Z,81.30
2019-02-25T07:36:56.760Z,78.37
2019-02-25T07:37:56.854Z,77.88
2019-02-25T07:38:56.938Z,80.32
2019-02-25T07:39:57.021Z,83.50
2019-02-25T07:40:57.112Z,80.57
2019-02-25T07:41:57.196Z,81.54
2019-02-25T07:42:57.284Z,77.39
2019-02-25T07:43:57.369Z,84.47
2019-02-25T07:44:57.454Z,87.16
2019-02-25T07:45:57.545Z,77.88
2019-02-25T07:46:57.630Z,79.10
2019-02-25T07:47:57.715Z,78.61
2019-02-25T07:48:57.803Z,81.30
2019-02-25T07:49:57.889Z,85.94
2019-02-25T07:50:57.978Z,76.66
2019-02-25T07:51:58.067Z,79.83
2019-02-25T07:52:58.150Z,79.59
2019-02-25T07:53:58.234Z,78.13
2019-02-25T07:54:58.321Z,79.59
2019-02-25T07:56:02.282Z,79.59
2019-02-25T07:56:58.503Z,77.88
2019-02-25T07:57:58.581Z,77.88
2019-02-25T07:58:58.670Z,84.47
2019-02-25T07:59:58.757Z,78.61
2019-02-25T08:00:58.842Z,77.15
2019-02-25T08:01:58.929Z,85.69
2019-02-25T08:02:59.010Z,76.90
2019-02-25T08:03:59.097Z,78.61
2019-02-25T08:04:59.185Z,83.50
2019-02-25T08:05:59.263Z,78.86
2019-02-25T08:06:59.375Z,82.76
2019-02-25T08:07:59.441Z,83.98
2019-02-25T08:08:59.517Z,81.79
2019-02-25T08:09:59.626Z,79.83
2019-02-25T08:10:59.685Z,79.10
2019-02-25T08:11:59.766Z,79.83
2019-02-25T08:12:59.859Z,82.76
2019-02-25T08:13:59.939Z,77.15
2019-02-25T08:15:00.011Z,77.15
2019-02-25T08:16:00.093Z,85.21
2019-02-25T08:17:00.193Z,85.69
2019-02-25T08:18:00.253Z,78.13
2019-02-25T08:19:00.339Z,85.69
2019-02-25T08:20:00.429Z,82.76
2019-02-25T08:21:00.517Z,78.13
2019-02-25T08:22:00.604Z,78.13
2019-02-25T08:23:00.717Z,76.66
2019-02-25T08:24:00.776Z,79.83
2019-02-25T08:25:00.872Z,78.37
2019-02-25T08:26:00.960Z,77.15
2019-02-25T08:27:01.047Z,78.13
2019-02-25T08:28:01.129Z,83.25
2019-02-25T08:29:01.212Z,81.79
2019-02-25T08:30:01.302Z,78.86
2019-02-25T08:31:01.392Z,79.83
2019-02-25T08:32:01.472Z,88.13
2019-02-25T08:33:01.562Z,76.42
2019-02-25T08:34:01.652Z,77.88
2019-02-25T08:35:01.762Z,76.17
2019-02-25T08:36:01.855Z,80.57
2019-02-25T08:37:02.623Z,78.86
2019-02-25T08:38:02.027Z,77.64
2019-02-25T08:39:02.111Z,80.57
2019-02-25T08:40:02.201Z,78.13
2019-02-25T08:41:02.289Z,77.64
2019-02-25T08:42:02.375Z,82.28
2019-02-25T08:43:02.462Z,80.57
2019-02-25T08:44:02.548Z,77.15
2019-02-25T08:45:02.647Z,77.39
2019-02-25T08:46:02.731Z,79.10
2019-02-25T08:47:02.819Z,84.72
2019-02-25T08:48:02.940Z,83.98
2019-02-25T08:49:02.988Z,83.74
2019-02-25T08:50:03.078Z,78.13
2019-02-25T08:51:03.168Z,82.52
2019-02-25T08:52:03.247Z,80.57
2019-02-25T08:53:03.333Z,82.76
2019-02-25T08:54:03.422Z,77.88
2019-02-25T08:55:03.508Z,84.72
2019-02-25T08:56:03.596Z,78.37
2019-02-25T08:57:03.680Z,80.57
2019-02-25T08:58:03.765Z,77.88
2019-02-25T08:59:03.856Z,79.10
2019-02-25T09:00:03.946Z,77.88
2019-02-25T09:01:04.035Z,80.32
2019-02-25T09:02:04.138Z,84.47
2019-02-25T09:03:04.205Z,84.23
2019-02-25T09:04:04.293Z,78.61
2019-02-25T09:05:04.383Z,79.83
2019-02-25T09:06:04.458Z,77.88
2019-02-25T09:07:04.549Z,86.43
2019-02-25T09:08:04.631Z,76.17
2019-02-25T09:09:04.721Z,78.13
2019-02-25T09:10:04.810Z,84.96
2019-02-25T09:11:13.750Z,83.25
2019-02-25T09:12:04.986Z,78.13
2019-02-25T09:13:05.075Z,81.54
2019-02-25T09:14:05.168Z,80.08
2019-02-25T09:15:05.257Z,77.88
2019-02-25T09:16:05.347Z,81.54
2019-02-25T09:17:05.434Z,75.68
2019-02-25T09:18:05.529Z,77.88
2019-02-25T09:19:05.613Z,77.64
2019-02-25T09:20:05.702Z,79.35
2019-02-25T09:21:05.788Z,79.83
2019-02-25T09:22:05.877Z,83.01
2019-02-25T09:23:05.973Z,82.76
2019-02-25T09:24:06.060Z,82.03
2019-02-25T09:25:06.149Z,77.15
2019-02-25T09:26:06.234Z,80.57
2019-02-25T09:27:06.321Z,80.81
2019-02-25T09:28:06.406Z,80.08
2019-02-25T09:29:06.499Z,79.59
2019-02-25T09:30:06.587Z,82.28
2019-02-25T09:31:06.670Z,79.83
2019-02-25T09:32:06.765Z,76.90
2019-02-25T09:33:06.850Z,81.05
2019-02-25T09:34:06.939Z,77.64
2019-02-25T09:35:07.030Z,84.72
2019-02-25T09:36:07.119Z,82.52
2019-02-25T09:37:07.205Z,80.32
2019-02-25T09:38:07.298Z,78.13
2019-02-25T09:39:07.379Z,80.08
2019-02-25T09:40:07.474Z,78.13
2019-02-25T09:41:07.558Z,79.10
2019-02-25T09:42:07.642Z,77.15
2019-02-25T09:43:07.723Z,79.35
2019-02-25T09:44:07.822Z,79.35
2019-02-25T09:45:07.908Z,77.88
2019-02-25T09:46:07.994Z,77.64
2019-02-25T09:47:08.087Z,79.83
2019-02-25T09:48:08.180Z,77.15
2019-02-25T09:49:08.270Z,75.20
2019-02-25T09:50:08.348Z,83.98
2019-02-25T09:51:08.439Z,78.13
2019-02-25T09:52:08.524Z,83.74
2019-02-25T09:53:08.616Z,76.66
2019-02-25T09:54:08.707Z,76.66
2019-02-25T09:55:08.806Z,79.35
2019-02-25T09:56:08.894Z,79.59
2019-02-25T09:57:08.989Z,78.13
2019-02-25T09:58:09.079Z,79.10
2019-02-25T09:59:09.170Z,77.39
2019-02-25T10:00:09.256Z,77.64
2019-02-25T10:01:09.367Z,77.39
2019-02-25T10:02:09.463Z,76.90
2019-02-25T10:03:09.536Z,76.66
2019-02-25T10:04:09.629Z,88.87
2019-02-25T10:05:09.716Z,88.87
2019-02-25T10:06:09.811Z,74.71
2019-02-25T10:07:09.894Z,82.03
2019-02-25T10:08:10.023Z,76.17
2019-02-25T10:09:10.122Z,84.47
2019-02-25T10:10:10.200Z,81.30
2019-02-25T10:11:10.289Z,78.37
2019-02-25T10:12:10.383Z,79.35
2019-02-25T10:13:10.470Z,75.93
2019-02-25T10:14:10.573Z,79.35
2019-02-25T10:15:10.648Z,79.83
2019-02-25T10:16:10.742Z,77.15
2019-02-25T10:17:10.820Z,79.35
2019-02-25T10:18:10.920Z,77.64
2019-02-25T10:19:11.012Z,79.83
2019-02-25T10:20:11.104Z,80.32
2019-02-25T10:21:11.209Z,83.01
2019-02-25T10:22:11.272Z,76.90
2019-02-25T10:23:11.361Z,76.66
2019-02-25T10:24:11.452Z,77.39
2019-02-25T10:25:11.559Z,77.64
2019-02-25T10:26:11.630Z,77.39
2019-02-25T10:27:11.725Z,86.18
2019-02-25T10:28:11.814Z,77.15
2019-02-25T10:29:11.916Z,78.13
2019-02-25T10:30:12.001Z,79.83
2019-02-25T10:31:13.150Z,81.54
2019-02-25T10:32:12.178Z,83.25
2019-02-25T10:33:12.277Z,78.13
2019-02-25T10:34:12.372Z,76.90
2019-02-25T10:35:12.458Z,74.46
2019-02-25T10:36:12.544Z,83.25
2019-02-25T10:37:13.198Z,84.47
2019-02-25T10:38:12.731Z,75.93
2019-02-25T10:39:14.929Z,80.81
2019-02-25T10:40:13.666Z,77.88
2019-02-25T10:41:13.011Z,81.79
2019-02-25T10:42:13.101Z,75.93
2019-02-25T10:43:13.191Z,77.39
2019-02-25T10:44:13.281Z,75.20
2019-02-25T10:45:13.579Z,79.10
2019-02-25T10:46:15.410Z,82.52
2019-02-25T10:47:15.301Z,80.81
2019-02-25T10:48:15.192Z,84.47
2019-02-25T10:49:13.744Z,85.21
2019-02-25T10:50:13.834Z,75.44
2019-02-25T10:51:13.928Z,78.86
2019-02-25T10:52:15.176Z,78.37
2019-02-25T10:53:15.703Z,83.50
2019-02-25T10:54:14.797Z,84.72
2019-02-25T10:55:14.296Z,81.79
2019-02-25T10:56:16.237Z,83.25
2019-02-25T10:57:14.481Z,79.59
2019-02-25T10:58:14.571Z,77.15
2019-02-25T10:59:14.665Z,76.66
2019-02-25T11:00:14.756Z,76.42
2019-02-25T11:01:17.499Z,78.13
2019-02-25T11:02:15.337Z,83.50
2019-02-25T11:03:15.300Z,80.08
2019-02-25T11:04:15.740Z,76.42
2019-02-25T11:05:15.223Z,75.44
2019-02-25T11:06:15.315Z,78.13
2019-02-25T11:07:15.408Z,81.30
2019-02-25T11:08:15.501Z,75.93
2019-02-25T11:09:16.380Z,77.15
2019-02-25T11:10:16.539Z,75.20
2019-02-25T11:11:16.365Z,84.96
2019-02-25T11:12:15.869Z,84.72
2019-02-25T11:13:15.960Z,77.88
2019-02-25T11:14:16.052Z,77.15
2019-02-25T11:15:16.147Z,75.93
2019-02-25T11:16:18.180Z,80.32
2019-02-25T11:17:18.168Z,77.64
2019-02-25T11:18:17.986Z,80.32
2019-02-25T11:19:16.539Z,81.79
2019-02-25T11:20:16.687Z,81.30
2019-02-25T11:21:16.726Z,80.08
2019-02-25T11:22:16.824Z,81.05
2019-02-25T11:23:17.671Z,80.57
2019-02-25T11:24:18.644Z,75.68
2019-02-25T11:25:17.200Z,82.28
2019-02-25T11:26:17.203Z,80.81
2019-02-25T11:27:17.294Z,77.39
2019-02-25T11:28:25.499Z,79.59
2019-02-25T11:29:17.483Z,79.59
2019-02-25T11:30:19.353Z,78.37
2019-02-25T11:31:22.149Z,76.66
2019-02-25T11:32:19.877Z,77.15
2019-02-25T11:33:17.878Z,73.49
2019-02-25T11:34:17.975Z,78.13
2019-02-25T11:35:18.070Z,78.61
2019-02-25T11:36:20.198Z,77.39
2019-02-25T11:37:19.720Z,77.39
2019-02-25T11:38:18.358Z,80.57
2019-02-25T11:39:18.469Z,81.54
2019-02-25T11:40:18.560Z,76.90
2019-02-25T11:41:18.654Z,84.72
2019-02-25T11:42:20.527Z,74.95
2019-02-25T11:43:21.389Z,77.39
2019-02-25T11:44:21.001Z,75.93
2019-02-25T11:45:19.032Z,77.39
2019-02-25T11:46:19.138Z,78.13
2019-02-25T11:47:19.237Z,78.13
2019-02-25T11:48:19.339Z,81.79
2019-02-25T11:49:19.431Z,81.54
2019-02-25T11:50:19.527Z,83.50
2019-02-25T11:55:03.849Z,76.42
2019-02-25T11:56:03.949Z,75.93
2019-02-25T11:57:04.037Z,75.20
2019-02-25T11:58:04.139Z,83.74
2019-02-25T11:59:04.216Z,80.57
2019-02-25T12:00:04.317Z,76.17
2019-02-25T12:01:04.411Z,75.93
2019-02-25T12:02:04.504Z,82.76
2019-02-25T12:03:04.597Z,81.05
2019-02-25T12:04:04.684Z,82.76
2019-02-25T12:05:04.790Z,80.32
2019-02-25T12:06:04.886Z,81.54
2019-02-25T12:07:04.976Z,81.54
2019-02-25T12:08:05.070Z,82.52
2019-02-25T12:09:05.167Z,78.86
2019-02-25T12:10:05.261Z,76.66
2019-02-25T12:11:05.358Z,78.37
2019-02-25T12:12:05.445Z,81.30
2019-02-25T12:13:05.546Z,76.66
2019-02-25T12:14:05.651Z,82.52
2019-02-25T12:15:05.726Z,79.59
2019-02-25T12:16:05.819Z,82.76
2019-02-25T12:17:05.905Z,77.15
2019-02-25T12:18:06.007Z,78.61
2019-02-25T12:19:06.104Z,80.81
2019-02-25T12:20:06.197Z,80.32
2019-02-25T12:21:06.295Z,77.88
2019-02-25T12:22:06.387Z,77.39
2019-02-25T12:23:06.481Z,84.72
2019-02-25T12:24:06.577Z,77.15
2019-02-25T12:25:06.675Z,76.17
2019-02-25T12:26:06.767Z,75.44
2019-02-25T12:27:06.862Z,77.64
2019-02-25T12:28:06.956Z,81.05
2019-02-25T12:29:10.897Z,80.81
2019-02-25T12:30:07.155Z,76.66
2019-02-25T12:31:07.249Z,84.96
2019-02-25T12:32:07.345Z,80.57
2019-02-25T12:33:07.437Z,83.01
2019-02-25T12:34:07.528Z,82.76
2019-02-25T12:35:07.629Z,77.64
2019-02-25T12:36:07.722Z,76.90
2019-02-25T12:37:07.842Z,76.90
2019-02-25T12:38:07.914Z,76.90
2019-02-25T12:39:08.009Z,75.20
2019-02-25T12:40:08.106Z,81.79
2019-02-25T12:41:08.202Z,76.17
2019-02-25T12:42:08.296Z,82.52
2019-02-25T12:43:08.390Z,77.39
2019-02-25T12:44:08.484Z,80.81
2019-02-25T12:45:08.576Z,76.42
2019-02-25T12:46:08.674Z,73.00
2019-02-25T12:47:08.769Z,77.39
2019-02-25T12:48:08.863Z,76.17
2019-02-25T12:49:08.959Z,86.18
2019-02-25T12:50:09.053Z,75.93
2019-02-25T12:51:09.145Z,73.24
2019-02-25T12:52:09.244Z,80.81
2019-02-25T12:53:09.339Z,82.03
2019-02-25T12:54:09.437Z,73.73
2019-02-25T12:55:09.530Z,73.97
2019-02-25T12:56:09.648Z,86.43
2019-02-25T12:57:09.743Z,79.59
2019-02-25T12:58:09.842Z,76.90
2019-02-25T12:59:09.937Z,82.28
2019-02-25T13:00:10.035Z,82.03